<?xml version="1.0" encoding="UTF-8" standalone="no" ?>
<gpx xmlns="http://www.topografix.com/GPX/1/1" xmlns:xsi="http://www.w3.org/2001/XMLSchema-instance" xsi:schemaLocation="http://www.topografix.com/GPX/1/1 http://www.topografix.com/GPX/1/1/gpx.xsd" version="1.1" creator="VisuGPX - https://www.visugpx.com">
  <metadata>
    <name>lonlau-la-sauvagere (1)_hYHhL</name>
  </metadata>
  <trk>
    <name><![CDATA[lonlau-la-sauvagere (1)]]></name>
    <extensions>
      <line xmlns="http://www.topografix.com/GPX/gpx_style/0/2">
        <color>0000FF</color>
        <width>4</width>
      </line>
    </extensions>
    <trkseg>
      <trkpt lat="48.59832" lon="-0.34939">
        <ele>222</ele>
        <time>2023-03-29T08:25:53Z</time>
      </trkpt>
      <trkpt lat="48.59938" lon="-0.3485">
        <ele>225</ele>
        <time>2023-03-29T08:26:21Z</time>
      </trkpt>
      <trkpt lat="48.59972" lon="-0.34962">
        <ele>228</ele>
        <time>2023-03-29T08:26:40Z</time>
      </trkpt>
      <trkpt lat="48.60044" lon="-0.34962">
        <ele>231</ele>
        <time>2023-03-29T08:26:57Z</time>
      </trkpt>
      <trkpt lat="48.60086" lon="-0.35108">
        <ele>233</ele>
        <time>2023-03-29T08:27:22Z</time>
      </trkpt>
      <trkpt lat="48.60116" lon="-0.35298">
        <ele>229</ele>
        <time>2023-03-29T08:27:52Z</time>
      </trkpt>
      <trkpt lat="48.60098" lon="-0.35347">
        <ele>228</ele>
        <time>2023-03-29T08:28:01Z</time>
      </trkpt>
      <trkpt lat="48.6013" lon="-0.35448">
        <ele>232</ele>
        <time>2023-03-29T08:28:18Z</time>
      </trkpt>
      <trkpt lat="48.60143" lon="-0.35522">
        <ele>236</ele>
        <time>2023-03-29T08:28:30Z</time>
      </trkpt>
      <trkpt lat="48.60449" lon="-0.35533">
        <ele>239</ele>
        <time>2023-03-29T08:29:41Z</time>
      </trkpt>
      <trkpt lat="48.60605" lon="-0.35444">
        <ele>243</ele>
        <time>2023-03-29T08:30:20Z</time>
      </trkpt>
      <trkpt lat="48.60713" lon="-0.35309">
        <ele>245</ele>
        <time>2023-03-29T08:30:53Z</time>
      </trkpt>
      <trkpt lat="48.60839" lon="-0.34999">
        <ele>249</ele>
        <time>2023-03-29T08:31:49Z</time>
      </trkpt>
      <trkpt lat="48.6099" lon="-0.34667">
        <ele>257</ele>
        <time>2023-03-29T08:32:51Z</time>
      </trkpt>
      <trkpt lat="48.61106" lon="-0.34566">
        <ele>256</ele>
        <time>2023-03-29T08:33:23Z</time>
      </trkpt>
      <trkpt lat="48.6125" lon="-0.34521">
        <ele>257</ele>
        <time>2023-03-29T08:33:57Z</time>
      </trkpt>
      <trkpt lat="48.61788" lon="-0.34648">
        <ele>269</ele>
        <time>2023-03-29T08:36:04Z</time>
      </trkpt>
      <trkpt lat="48.61929" lon="-0.34599">
        <ele>266</ele>
        <time>2023-03-29T08:36:38Z</time>
      </trkpt>
      <trkpt lat="48.62181" lon="-0.34289">
        <ele>268</ele>
        <time>2023-03-29T08:37:54Z</time>
      </trkpt>
      <trkpt lat="48.62307" lon="-0.34226">
        <ele>270</ele>
        <time>2023-03-29T08:38:25Z</time>
      </trkpt>
      <trkpt lat="48.62447" lon="-0.34215">
        <ele>269</ele>
        <time>2023-03-29T08:38:57Z</time>
      </trkpt>
      <trkpt lat="48.63265" lon="-0.34394">
        <ele>264</ele>
        <time>2023-03-29T08:42:10Z</time>
      </trkpt>
      <trkpt lat="48.6347" lon="-0.34484">
        <ele>257</ele>
        <time>2023-03-29T08:43:00Z</time>
      </trkpt>
      <trkpt lat="48.6365" lon="-0.34745">
        <ele>248</ele>
        <time>2023-03-29T08:43:58Z</time>
      </trkpt>
      <trkpt lat="48.63776" lon="-0.34824">
        <ele>245</ele>
        <time>2023-03-29T08:44:30Z</time>
      </trkpt>
      <trkpt lat="48.63958" lon="-0.34898">
        <ele>239</ele>
        <time>2023-03-29T08:45:14Z</time>
      </trkpt>
      <trkpt lat="48.64116" lon="-0.34902">
        <ele>244</ele>
        <time>2023-03-29T08:45:51Z</time>
      </trkpt>
      <trkpt lat="48.64329" lon="-0.35022">
        <ele>237</ele>
        <time>2023-03-29T08:46:44Z</time>
      </trkpt>
      <trkpt lat="48.64363" lon="-0.35201">
        <ele>238</ele>
        <time>2023-03-29T08:47:13Z</time>
      </trkpt>
      <trkpt lat="48.64314" lon="-0.35425">
        <ele>242</ele>
        <time>2023-03-29T08:47:49Z</time>
      </trkpt>
      <trkpt lat="48.64396" lon="-0.35547">
        <ele>240</ele>
        <time>2023-03-29T08:48:16Z</time>
      </trkpt>
      <trkpt lat="48.64475" lon="-0.35654">
        <ele>236</ele>
        <time>2023-03-29T08:48:41Z</time>
      </trkpt>
      <trkpt lat="48.64472" lon="-0.35766">
        <ele>237</ele>
        <time>2023-03-29T08:48:58Z</time>
      </trkpt>
      <trkpt lat="48.64537" lon="-0.35899">
        <ele>235</ele>
        <time>2023-03-29T08:49:24Z</time>
      </trkpt>
      <trkpt lat="48.64571" lon="-0.36023">
        <ele>234</ele>
        <time>2023-03-29T08:49:45Z</time>
      </trkpt>
      <trkpt lat="48.64512" lon="-0.36435">
        <ele>243</ele>
        <time>2023-03-29T08:50:50Z</time>
      </trkpt>
      <trkpt lat="48.64492" lon="-0.36534">
        <ele>245</ele>
        <time>2023-03-29T08:51:06Z</time>
      </trkpt>
      <trkpt lat="48.64489" lon="-0.36886">
        <ele>254</ele>
        <time>2023-03-29T08:52:00Z</time>
      </trkpt>
      <trkpt lat="48.64435" lon="-0.37667">
        <ele>282</ele>
        <time>2023-03-29T08:54:01Z</time>
      </trkpt>
      <trkpt lat="48.64367" lon="-0.38074">
        <ele>284</ele>
        <time>2023-03-29T08:55:06Z</time>
      </trkpt>
      <trkpt lat="48.64191" lon="-0.38585">
        <ele>292</ele>
        <time>2023-03-29T08:56:35Z</time>
      </trkpt>
      <trkpt lat="48.63964" lon="-0.38795">
        <ele>293</ele>
        <time>2023-03-29T08:57:37Z</time>
      </trkpt>
      <trkpt lat="48.63732" lon="-0.39135">
        <ele>305</ele>
        <time>2023-03-29T08:58:52Z</time>
      </trkpt>
      <trkpt lat="48.63777" lon="-0.39577">
        <ele>304</ele>
        <time>2023-03-29T09:00:01Z</time>
      </trkpt>
      <trkpt lat="48.63854" lon="-0.39697">
        <ele>303</ele>
        <time>2023-03-29T09:00:27Z</time>
      </trkpt>
      <trkpt lat="48.63885" lon="-0.39783">
        <ele>301</ele>
        <time>2023-03-29T09:00:42Z</time>
      </trkpt>
      <trkpt lat="48.63945" lon="-0.4016">
        <ele>297</ele>
        <time>2023-03-29T09:01:42Z</time>
      </trkpt>
      <trkpt lat="48.63709" lon="-0.40255">
        <ele>283</ele>
        <time>2023-03-29T09:02:39Z</time>
      </trkpt>
      <trkpt lat="48.63584" lon="-0.40396">
        <ele>279</ele>
        <time>2023-03-29T09:03:16Z</time>
      </trkpt>
      <trkpt lat="48.63465" lon="-0.40456">
        <ele>276</ele>
        <time>2023-03-29T09:03:45Z</time>
      </trkpt>
      <trkpt lat="48.63349" lon="-0.40413">
        <ele>277</ele>
        <time>2023-03-29T09:04:13Z</time>
      </trkpt>
      <trkpt lat="48.63235" lon="-0.40448">
        <ele>277</ele>
        <time>2023-03-29T09:04:40Z</time>
      </trkpt>
      <trkpt lat="48.63082" lon="-0.40538">
        <ele>274</ele>
        <time>2023-03-29T09:05:18Z</time>
      </trkpt>
      <trkpt lat="48.63045" lon="-0.40448">
        <ele>274</ele>
        <time>2023-03-29T09:05:35Z</time>
      </trkpt>
      <trkpt lat="48.62975" lon="-0.40512">
        <ele>271</ele>
        <time>2023-03-29T09:05:54Z</time>
      </trkpt>
      <trkpt lat="48.62906" lon="-0.40602">
        <ele>269</ele>
        <time>2023-03-29T09:06:15Z</time>
      </trkpt>
      <trkpt lat="48.62836" lon="-0.40667">
        <ele>266</ele>
        <time>2023-03-29T09:06:34Z</time>
      </trkpt>
      <trkpt lat="48.62742" lon="-0.40456">
        <ele>261</ele>
        <time>2023-03-29T09:07:13Z</time>
      </trkpt>
      <trkpt lat="48.62549" lon="-0.40508">
        <ele>256</ele>
        <time>2023-03-29T09:07:59Z</time>
      </trkpt>
      <trkpt lat="48.62297" lon="-0.40667">
        <ele>253</ele>
        <time>2023-03-29T09:09:03Z</time>
      </trkpt>
      <trkpt lat="48.62209" lon="-0.40727">
        <ele>246</ele>
        <time>2023-03-29T09:09:26Z</time>
      </trkpt>
      <trkpt lat="48.62149" lon="-0.4074">
        <ele>242</ele>
        <time>2023-03-29T09:09:40Z</time>
      </trkpt>
      <trkpt lat="48.62115" lon="-0.40701">
        <ele>242</ele>
        <time>2023-03-29T09:09:50Z</time>
      </trkpt>
      <trkpt lat="48.62084" lon="-0.40714">
        <ele>242</ele>
        <time>2023-03-29T09:09:57Z</time>
      </trkpt>
      <trkpt lat="48.62087" lon="-0.40868">
        <ele>243</ele>
        <time>2023-03-29T09:10:21Z</time>
      </trkpt>
      <trkpt lat="48.62021" lon="-0.40971">
        <ele>244</ele>
        <time>2023-03-29T09:10:43Z</time>
      </trkpt>
      <trkpt lat="48.61987" lon="-0.40988">
        <ele>244</ele>
        <time>2023-03-29T09:10:51Z</time>
      </trkpt>
      <trkpt lat="48.61888" lon="-0.41079">
        <ele>244</ele>
        <time>2023-03-29T09:11:19Z</time>
      </trkpt>
      <trkpt lat="48.61755" lon="-0.40873">
        <ele>250</ele>
        <time>2023-03-29T09:12:03Z</time>
      </trkpt>
      <trkpt lat="48.61553" lon="-0.40405">
        <ele>249</ele>
        <time>2023-03-29T09:13:29Z</time>
      </trkpt>
      <trkpt lat="48.61519" lon="-0.40405">
        <ele>249</ele>
        <time>2023-03-29T09:13:37Z</time>
      </trkpt>
      <trkpt lat="48.6138" lon="-0.39916">
        <ele>240</ele>
        <time>2023-03-29T09:14:59Z</time>
      </trkpt>
      <trkpt lat="48.61301" lon="-0.39808">
        <ele>247</ele>
        <time>2023-03-29T09:15:24Z</time>
      </trkpt>
      <trkpt lat="48.61173" lon="-0.39491">
        <ele>257</ele>
        <time>2023-03-29T09:16:22Z</time>
      </trkpt>
      <trkpt lat="48.61068" lon="-0.39169">
        <ele>250</ele>
        <time>2023-03-29T09:17:17Z</time>
      </trkpt>
      <trkpt lat="48.61065" lon="-0.38667">
        <ele>247</ele>
        <time>2023-03-29T09:18:35Z</time>
      </trkpt>
      <trkpt lat="48.60975" lon="-0.38564">
        <ele>245</ele>
        <time>2023-03-29T09:19:01Z</time>
      </trkpt>
      <trkpt lat="48.60969" lon="-0.38409">
        <ele>237</ele>
        <time>2023-03-29T09:19:25Z</time>
      </trkpt>
      <trkpt lat="48.60844" lon="-0.38087">
        <ele>238</ele>
        <time>2023-03-29T09:20:23Z</time>
      </trkpt>
      <trkpt lat="48.60711" lon="-0.37941">
        <ele>245</ele>
        <time>2023-03-29T09:21:01Z</time>
      </trkpt>
      <trkpt lat="48.60628" lon="-0.37821">
        <ele>246</ele>
        <time>2023-03-29T09:21:28Z</time>
      </trkpt>
      <trkpt lat="48.6058" lon="-0.37658">
        <ele>245</ele>
        <time>2023-03-29T09:21:55Z</time>
      </trkpt>
      <trkpt lat="48.60495" lon="-0.37452">
        <ele>246</ele>
        <time>2023-03-29T09:22:33Z</time>
      </trkpt>
      <trkpt lat="48.60373" lon="-0.37298">
        <ele>245</ele>
        <time>2023-03-29T09:23:10Z</time>
      </trkpt>
      <trkpt lat="48.60205" lon="-0.37032">
        <ele>240</ele>
        <time>2023-03-29T09:24:07Z</time>
      </trkpt>
      <trkpt lat="48.60143" lon="-0.3674">
        <ele>227</ele>
        <time>2023-03-29T09:24:54Z</time>
      </trkpt>
      <trkpt lat="48.60055" lon="-0.36675">
        <ele>229</ele>
        <time>2023-03-29T09:25:17Z</time>
      </trkpt>
      <trkpt lat="48.60015" lon="-0.36555">
        <ele>237</ele>
        <time>2023-03-29T09:25:38Z</time>
      </trkpt>
      <trkpt lat="48.59797" lon="-0.36375">
        <ele>239</ele>
        <time>2023-03-29T09:26:36Z</time>
      </trkpt>
      <trkpt lat="48.59859" lon="-0.35856">
        <ele>241</ele>
        <time>2023-03-29T09:27:57Z</time>
      </trkpt>
      <trkpt lat="48.59484" lon="-0.35684">
        <ele>230</ele>
        <time>2023-03-29T09:29:29Z</time>
      </trkpt>
      <trkpt lat="48.59388" lon="-0.35663">
        <ele>227</ele>
        <time>2023-03-29T09:29:51Z</time>
      </trkpt>
      <trkpt lat="48.5936" lon="-0.35525">
        <ele>223</ele>
        <time>2023-03-29T09:30:14Z</time>
      </trkpt>
      <trkpt lat="48.59451" lon="-0.35371">
        <ele>218</ele>
        <time>2023-03-29T09:30:45Z</time>
      </trkpt>
      <trkpt lat="48.59578" lon="-0.35302">
        <ele>221</ele>
        <time>2023-03-29T09:31:17Z</time>
      </trkpt>
      <trkpt lat="48.59726" lon="-0.35096">
        <ele>217</ele>
        <time>2023-03-29T09:32:04Z</time>
      </trkpt>
      <trkpt lat="48.59845" lon="-0.34937">
        <ele>223</ele>
        <time>2023-03-29T09:32:41Z</time>
      </trkpt>
    </trkseg>
  </trk>
</gpx>